sensor_id;sensor_type;location;lat;lon;timestamp;temperature;humidity
68867;SHT30;56451;44.804;20.476;2023-02-18T00:01:46;13.76;41.50
68867;SHT30;56451;44.804;20.476;2023-02-18T00:04:12;13.74;41.30
68867;SHT30;56451;44.804;20.476;2023-02-18T00:06:38;13.77;41.31
68867;SHT30;56451;44.804;20.476;2023-02-18T00:09:05;13.80;41.29
68867;SHT30;56451;44.804;20.476;2023-02-18T00:11:33;13.81;41.02
68867;SHT30;56451;44.804;20.476;2023-02-18T00:14:01;13.83;40.87
68867;SHT30;56451;44.804;20.476;2023-02-18T00:16:28;13.84;40.97
68867;SHT30;56451;44.804;20.476;2023-02-18T00:19:00;13.87;40.84
68867;SHT30;56451;44.804;20.476;2023-02-18T00:21:26;13.90;40.59
68867;SHT30;56451;44.804;20.476;2023-02-18T00:23:53;13.88;40.52
68867;SHT30;56451;44.804;20.476;2023-02-18T00:26:20;13.93;40.36
68867;SHT30;56451;44.804;20.476;2023-02-18T00:28:47;13.93;40.32
68867;SHT30;56451;44.804;20.476;2023-02-18T00:31:20;13.95;40.24
68867;SHT30;56451;44.804;20.476;2023-02-18T00:33:46;14.03;40.15
68867;SHT30;56451;44.804;20.476;2023-02-18T00:36:15;14.01;40.03
68867;SHT30;56451;44.804;20.476;2023-02-18T00:38:49;14.01;39.60
68867;SHT30;56451;44.804;20.476;2023-02-18T00:41:17;14.00;39.55
68867;SHT30;56451;44.804;20.476;2023-02-18T00:43:43;14.04;39.40
68867;SHT30;56451;44.804;20.476;2023-02-18T00:46:09;14.07;39.30
68867;SHT30;56451;44.804;20.476;2023-02-18T00:48:36;14.04;39.34
68867;SHT30;56451;44.804;20.476;2023-02-18T00:51:02;14.05;39.16
68867;SHT30;56451;44.804;20.476;2023-02-18T00:53:29;14.07;39.10
68867;SHT30;56451;44.804;20.476;2023-02-18T00:55:55;14.07;38.98
68867;SHT30;56451;44.804;20.476;2023-02-18T00:58:22;14.08;38.85
68867;SHT30;56451;44.804;20.476;2023-02-18T01:00:49;14.04;38.86
68867;SHT30;56451;44.804;20.476;2023-02-18T01:03:15;14.08;38.98
68867;SHT30;56451;44.804;20.476;2023-02-18T01:05:41;14.10;38.93
68867;SHT30;56451;44.804;20.476;2023-02-18T01:08:09;14.10;38.89
68867;SHT30;56451;44.804;20.476;2023-02-18T01:10:41;14.07;38.99
68867;SHT30;56451;44.804;20.476;2023-02-18T01:13:07;14.10;38.96
68867;SHT30;56451;44.804;20.476;2023-02-18T01:15:33;14.11;39.07
68867;SHT30;56451;44.804;20.476;2023-02-18T01:17:59;14.10;39.04
68867;SHT30;56451;44.804;20.476;2023-02-18T01:20:25;14.08;38.93
68867;SHT30;56451;44.804;20.476;2023-02-18T01:22:51;14.08;38.83
68867;SHT30;56451;44.804;20.476;2023-02-18T01:25:17;14.10;38.82
68867;SHT30;56451;44.804;20.476;2023-02-18T01:27:43;14.10;38.86
68867;SHT30;56451;44.804;20.476;2023-02-18T01:30:13;14.11;38.80
68867;SHT30;56451;44.804;20.476;2023-02-18T01:32:39;14.08;38.70
68867;SHT30;56451;44.804;20.476;2023-02-18T01:35:11;14.07;38.44
68867;SHT30;56451;44.804;20.476;2023-02-18T01:37:37;14.08;38.47
68867;SHT30;56451;44.804;20.476;2023-02-18T01:40:05;14.05;38.40
68867;SHT30;56451;44.804;20.476;2023-02-18T01:42:31;14.04;38.35
68867;SHT30;56451;44.804;20.476;2023-02-18T01:47:59;14.07;38.22
68867;SHT30;56451;44.804;20.476;2023-02-18T01:50:26;14.07;38.03
68867;SHT30;56451;44.804;20.476;2023-02-18T01:52:52;14.08;37.88
68867;SHT30;56451;44.804;20.476;2023-02-18T01:55:18;14.10;37.87
68867;SHT30;56451;44.804;20.476;2023-02-18T01:57:44;14.14;37.90
68867;SHT30;56451;44.804;20.476;2023-02-18T02:00:13;14.17;37.81
68867;SHT30;56451;44.804;20.476;2023-02-18T02:02:44;14.14;37.64
68867;SHT30;56451;44.804;20.476;2023-02-18T02:05:10;14.17;37.57
68867;SHT30;56451;44.804;20.476;2023-02-18T02:07:36;14.15;37.74
68867;SHT30;56451;44.804;20.476;2023-02-18T02:10:02;14.15;37.78
68867;SHT30;56451;44.804;20.476;2023-02-18T02:25:48;14.17;38.02
68867;SHT30;56451;44.804;20.476;2023-02-18T02:31:32;14.21;38.02
68867;SHT30;56451;44.804;20.476;2023-02-18T02:37:19;14.17;38.17
68867;SHT30;56451;44.804;20.476;2023-02-18T02:45:10;14.17;38.13
68867;SHT30;56451;44.804;20.476;2023-02-18T02:50:48;14.22;37.78
68867;SHT30;56451;44.804;20.476;2023-02-18T02:53:25;14.21;37.61
68867;SHT30;56451;44.804;20.476;2023-02-18T02:55:52;14.21;37.32
68867;SHT30;56451;44.804;20.476;2023-02-18T02:58:19;14.17;37.62
68867;SHT30;56451;44.804;20.476;2023-02-18T03:03:34;14.24;37.23
68867;SHT30;56451;44.804;20.476;2023-02-18T03:06:38;14.18;37.05
68867;SHT30;56451;44.804;20.476;2023-02-18T03:12:08;14.22;37.06
68867;SHT30;56451;44.804;20.476;2023-02-18T03:14:46;14.21;36.76
68867;SHT30;56451;44.804;20.476;2023-02-18T03:17:26;14.15;36.74
68867;SHT30;56451;44.804;20.476;2023-02-18T03:20:02;14.20;36.57
68867;SHT30;56451;44.804;20.476;2023-02-18T03:22:33;14.22;36.69
68867;SHT30;56451;44.804;20.476;2023-02-18T03:25:03;14.29;36.33
68867;SHT30;56451;44.804;20.476;2023-02-18T03:27:36;14.29;36.29
68867;SHT30;56451;44.804;20.476;2023-02-18T03:32:37;14.33;36.17
68867;SHT30;56451;44.804;20.476;2023-02-18T03:35:10;14.35;36.12
68867;SHT30;56451;44.804;20.476;2023-02-18T03:37:42;14.39;35.79
68867;SHT30;56451;44.804;20.476;2023-02-18T03:40:12;14.43;35.56
68867;SHT30;56451;44.804;20.476;2023-02-18T03:42:40;14.36;35.75
68867;SHT30;56451;44.804;20.476;2023-02-18T03:45:06;14.38;35.71
68867;SHT30;56451;44.804;20.476;2023-02-18T03:47:32;14.38;35.67
68867;SHT30;56451;44.804;20.476;2023-02-18T03:49:58;14.41;35.45
68867;SHT30;56451;44.804;20.476;2023-02-18T03:52:24;14.45;35.46
68867;SHT30;56451;44.804;20.476;2023-02-18T03:54:50;14.48;35.42
68867;SHT30;56451;44.804;20.476;2023-02-18T03:57:15;14.42;35.40
68867;SHT30;56451;44.804;20.476;2023-02-18T03:59:41;14.48;35.15
68867;SHT30;56451;44.804;20.476;2023-02-18T04:02:07;14.49;35.26
68867;SHT30;56451;44.804;20.476;2023-02-18T04:04:33;14.48;35.22
68867;SHT30;56451;44.804;20.476;2023-02-18T04:06:59;14.49;35.30
68867;SHT30;56451;44.804;20.476;2023-02-18T04:09:25;14.46;35.39
68867;SHT30;56451;44.804;20.476;2023-02-18T04:11:51;14.48;35.34
68867;SHT30;56451;44.804;20.476;2023-02-18T04:14:16;14.52;35.23
68867;SHT30;56451;44.804;20.476;2023-02-18T04:16:43;14.48;35.27
68867;SHT30;56451;44.804;20.476;2023-02-18T04:19:09;14.52;35.27
68867;SHT30;56451;44.804;20.476;2023-02-18T04:21:34;14.51;35.18
68867;SHT30;56451;44.804;20.476;2023-02-18T04:24:00;14.45;35.55
68867;SHT30;56451;44.804;20.476;2023-02-18T04:26:26;14.43;35.45
68867;SHT30;56451;44.804;20.476;2023-02-18T04:28:53;14.42;35.51
68867;SHT30;56451;44.804;20.476;2023-02-18T04:31:18;14.43;35.61
68867;SHT30;56451;44.804;20.476;2023-02-18T04:33:45;14.45;35.65
68867;SHT30;56451;44.804;20.476;2023-02-18T04:36:11;14.43;35.55
68867;SHT30;56451;44.804;20.476;2023-02-18T04:38:37;14.45;35.49
68867;SHT30;56451;44.804;20.476;2023-02-18T04:41:02;14.43;35.69
68867;SHT30;56451;44.804;20.476;2023-02-18T04:43:28;14.41;35.52
68867;SHT30;56451;44.804;20.476;2023-02-18T04:45:54;14.36;35.56
68867;SHT30;56451;44.804;20.476;2023-02-18T04:48:20;14.32;35.59
68867;SHT30;56451;44.804;20.476;2023-02-18T04:50:46;14.35;35.75
68867;SHT30;56451;44.804;20.476;2023-02-18T04:53:12;14.35;35.78
68867;SHT30;56451;44.804;20.476;2023-02-18T04:55:38;14.33;35.67
68867;SHT30;56451;44.804;20.476;2023-02-18T04:58:04;14.38;35.65
68867;SHT30;56451;44.804;20.476;2023-02-18T05:00:29;14.43;35.70
68867;SHT30;56451;44.804;20.476;2023-02-18T05:02:55;14.42;35.65
68867;SHT30;56451;44.804;20.476;2023-02-18T05:05:21;14.39;36.05
68867;SHT30;56451;44.804;20.476;2023-02-18T05:07:47;14.32;36.19
68867;SHT30;56451;44.804;20.476;2023-02-18T05:10:16;14.32;36.65
68867;SHT30;56451;44.804;20.476;2023-02-18T05:12:42;14.22;36.65
68867;SHT30;56451;44.804;20.476;2023-02-18T05:15:08;14.24;37.44
68867;SHT30;56451;44.804;20.476;2023-02-18T05:17:33;14.12;37.98
68867;SHT30;56451;44.804;20.476;2023-02-18T05:19:59;14.03;38.39
68867;SHT30;56451;44.804;20.476;2023-02-18T05:22:25;13.87;38.65
68867;SHT30;56451;44.804;20.476;2023-02-18T05:24:51;13.76;39.27
68867;SHT30;56451;44.804;20.476;2023-02-18T05:27:17;13.71;39.41
68867;SHT30;56451;44.804;20.476;2023-02-18T05:29:43;13.62;39.49
68867;SHT30;56451;44.804;20.476;2023-02-18T05:32:09;13.56;39.74
68867;SHT30;56451;44.804;20.476;2023-02-18T05:34:35;13.52;39.77
68867;SHT30;56451;44.804;20.476;2023-02-18T05:37:00;13.50;39.70
68867;SHT30;56451;44.804;20.476;2023-02-18T05:39:26;13.45;39.87
68867;SHT30;56451;44.804;20.476;2023-02-18T05:41:52;13.39;39.64
68867;SHT30;56451;44.804;20.476;2023-02-18T05:44:18;13.29;39.60
68867;SHT30;56451;44.804;20.476;2023-02-18T05:46:57;13.23;39.85
68867;SHT30;56451;44.804;20.476;2023-02-18T05:49:24;13.19;39.74
68867;SHT30;56451;44.804;20.476;2023-02-18T05:51:50;13.22;39.84
68867;SHT30;56451;44.804;20.476;2023-02-18T05:54:16;13.19;40.05
68867;SHT30;56451;44.804;20.476;2023-02-18T05:56:41;13.18;40.10
68867;SHT30;56451;44.804;20.476;2023-02-18T05:59:07;13.23;40.09
68867;SHT30;56451;44.804;20.476;2023-02-18T06:01:33;13.20;40.35
68867;SHT30;56451;44.804;20.476;2023-02-18T06:03:59;13.19;40.43
68867;SHT30;56451;44.804;20.476;2023-02-18T06:06:25;13.25;40.42
68867;SHT30;56451;44.804;20.476;2023-02-18T06:08:51;13.27;40.41
68867;SHT30;56451;44.804;20.476;2023-02-18T06:11:17;13.27;40.43
68867;SHT30;56451;44.804;20.476;2023-02-18T06:13:42;13.30;40.41
68867;SHT30;56451;44.804;20.476;2023-02-18T06:16:08;13.32;40.43
68867;SHT30;56451;44.804;20.476;2023-02-18T06:18:34;13.38;40.48
68867;SHT30;56451;44.804;20.476;2023-02-18T06:21:00;13.40;40.45
68867;SHT30;56451;44.804;20.476;2023-02-18T06:23:26;13.39;40.57
68867;SHT30;56451;44.804;20.476;2023-02-18T06:25:52;13.45;40.66
68867;SHT30;56451;44.804;20.476;2023-02-18T06:28:18;13.42;40.68
68867;SHT30;56451;44.804;20.476;2023-02-18T06:30:44;13.46;40.62
68867;SHT30;56451;44.804;20.476;2023-02-18T06:33:11;13.49;40.69
68867;SHT30;56451;44.804;20.476;2023-02-18T06:35:36;13.47;40.74
68867;SHT30;56451;44.804;20.476;2023-02-18T06:38:02;13.50;40.74
68867;SHT30;56451;44.804;20.476;2023-02-18T06:40:29;13.49;40.82
68867;SHT30;56451;44.804;20.476;2023-02-18T06:42:55;13.47;40.88
68867;SHT30;56451;44.804;20.476;2023-02-18T06:45:20;13.52;40.76
68867;SHT30;56451;44.804;20.476;2023-02-18T06:47:46;13.55;40.76
68867;SHT30;56451;44.804;20.476;2023-02-18T06:50:13;13.59;40.78
68867;SHT30;56451;44.804;20.476;2023-02-18T06:52:39;13.60;40.67
68867;SHT30;56451;44.804;20.476;2023-02-18T06:55:06;13.64;40.69
68867;SHT30;56451;44.804;20.476;2023-02-18T06:57:32;13.66;40.62
68867;SHT30;56451;44.804;20.476;2023-02-18T06:59:58;13.66;40.65
68867;SHT30;56451;44.804;20.476;2023-02-18T07:02:24;13.70;40.62
68867;SHT30;56451;44.804;20.476;2023-02-18T07:04:50;13.70;40.78
68867;SHT30;56451;44.804;20.476;2023-02-18T07:07:15;13.74;40.82
68867;SHT30;56451;44.804;20.476;2023-02-18T07:09:41;13.77;40.69
68867;SHT30;56451;44.804;20.476;2023-02-18T07:12:07;13.74;40.74
68867;SHT30;56451;44.804;20.476;2023-02-18T07:14:33;13.73;40.73
68867;SHT30;56451;44.804;20.476;2023-02-18T07:16:59;13.77;40.67
68867;SHT30;56451;44.804;20.476;2023-02-18T07:19:25;13.76;40.63
68867;SHT30;56451;44.804;20.476;2023-02-18T07:21:50;13.78;40.67
68867;SHT30;56451;44.804;20.476;2023-02-18T07:24:16;13.81;40.71
68867;SHT30;56451;44.804;20.476;2023-02-18T07:26:42;13.81;40.62
68867;SHT30;56451;44.804;20.476;2023-02-18T07:29:08;13.83;40.68
68867;SHT30;56451;44.804;20.476;2023-02-18T07:31:34;13.87;40.60
68867;SHT30;56451;44.804;20.476;2023-02-18T07:34:00;13.83;40.56
68867;SHT30;56451;44.804;20.476;2023-02-18T07:36:26;13.93;40.60
68867;SHT30;56451;44.804;20.476;2023-02-18T07:38:52;13.94;40.42
68867;SHT30;56451;44.804;20.476;2023-02-18T07:41:21;13.95;40.45
68867;SHT30;56451;44.804;20.476;2023-02-18T07:43:47;13.97;40.40
68867;SHT30;56451;44.804;20.476;2023-02-18T07:46:14;13.98;40.51
68867;SHT30;56451;44.804;20.476;2023-02-18T07:48:40;14.00;40.33
68867;SHT30;56451;44.804;20.476;2023-02-18T07:51:07;14.01;40.45
68867;SHT30;56451;44.804;20.476;2023-02-18T07:53:34;14.07;40.34
68867;SHT30;56451;44.804;20.476;2023-02-18T07:56:00;14.11;40.19
68867;SHT30;56451;44.804;20.476;2023-02-18T07:58:28;14.07;40.36
68867;SHT30;56451;44.804;20.476;2023-02-18T08:00:56;14.05;40.23
68867;SHT30;56451;44.804;20.476;2023-02-18T08:03:25;14.07;40.26
68867;SHT30;56451;44.804;20.476;2023-02-18T08:05:51;14.05;40.20
68867;SHT30;56451;44.804;20.476;2023-02-18T08:08:20;14.10;40.31
68867;SHT30;56451;44.804;20.476;2023-02-18T08:10:47;14.07;40.28
68867;SHT30;56451;44.804;20.476;2023-02-18T08:13:13;14.01;40.53
68867;SHT30;56451;44.804;20.476;2023-02-18T08:54:50;14.04;41.91
68867;SHT30;56451;44.804;20.476;2023-02-18T08:57:16;14.03;41.97
68867;SHT30;56451;44.804;20.476;2023-02-18T08:59:42;14.05;42.07
68867;SHT30;56451;44.804;20.476;2023-02-18T09:02:11;14.07;42.17
68867;SHT30;56451;44.804;20.476;2023-02-18T09:04:38;14.10;42.22
68867;SHT30;56451;44.804;20.476;2023-02-18T09:07:04;14.10;42.31
68867;SHT30;56451;44.804;20.476;2023-02-18T09:09:30;14.15;42.26
68867;SHT30;56451;44.804;20.476;2023-02-18T09:11:56;14.17;42.45
68867;SHT30;56451;44.804;20.476;2023-02-18T09:14:22;14.24;42.52
68867;SHT30;56451;44.804;20.476;2023-02-18T09:16:48;14.24;42.45
68867;SHT30;56451;44.804;20.476;2023-02-18T09:19:16;14.22;42.61
68867;SHT30;56451;44.804;20.476;2023-02-18T09:21:42;14.26;42.71
68867;SHT30;56451;44.804;20.476;2023-02-18T09:24:08;14.31;42.64
68867;SHT30;56451;44.804;20.476;2023-02-18T09:26:35;14.32;42.74
68867;SHT30;56451;44.804;20.476;2023-02-18T09:29:01;14.42;42.80
68867;SHT30;56451;44.804;20.476;2023-02-18T09:31:27;14.42;42.78
68867;SHT30;56451;44.804;20.476;2023-02-18T09:33:56;14.45;43.08
68867;SHT30;56451;44.804;20.476;2023-02-18T09:36:22;14.53;43.04
68867;SHT30;56451;44.804;20.476;2023-02-18T09:38:49;14.53;43.16
68867;SHT30;56451;44.804;20.476;2023-02-18T09:41:31;14.59;43.15
68867;SHT30;56451;44.804;20.476;2023-02-18T09:44:08;14.62;43.35
68867;SHT30;56451;44.804;20.476;2023-02-18T09:46:47;14.66;43.41
68867;SHT30;56451;44.804;20.476;2023-02-18T09:49:24;14.72;43.60
68867;SHT30;56451;44.804;20.476;2023-02-18T09:51:52;14.80;43.39
68867;SHT30;56451;44.804;20.476;2023-02-18T09:54:19;14.89;43.32
68867;SHT30;56451;44.804;20.476;2023-02-18T09:56:45;14.96;43.30
68867;SHT30;56451;44.804;20.476;2023-02-18T09:59:17;15.03;43.33
68867;SHT30;56451;44.804;20.476;2023-02-18T10:01:45;15.06;43.45
68867;SHT30;56451;44.804;20.476;2023-02-18T10:04:20;15.07;43.58
68867;SHT30;56451;44.804;20.476;2023-02-18T10:06:50;15.14;43.47
68867;SHT30;56451;44.804;20.476;2023-02-18T10:09:32;15.24;43.39
68867;SHT30;56451;44.804;20.476;2023-02-18T10:14:30;15.54;42.97
68867;SHT30;56451;44.804;20.476;2023-02-18T10:16:57;15.58;42.94
68867;SHT30;56451;44.804;20.476;2023-02-18T10:21:50;15.70;42.68
68867;SHT30;56451;44.804;20.476;2023-02-18T10:26:52;15.75;42.79
68867;SHT30;56451;44.804;20.476;2023-02-18T10:29:19;15.78;42.66
68867;SHT30;56451;44.804;20.476;2023-02-18T10:32:15;15.86;42.47
68867;SHT30;56451;44.804;20.476;2023-02-18T10:34:55;15.97;42.29
68867;SHT30;56451;44.804;20.476;2023-02-18T10:45:56;16.21;42.02
68867;SHT30;56451;44.804;20.476;2023-02-18T10:51:11;16.27;41.81
68867;SHT30;56451;44.804;20.476;2023-02-18T10:53:41;16.37;41.64
68867;SHT30;56451;44.804;20.476;2023-02-18T10:56:08;16.40;41.48
68867;SHT30;56451;44.804;20.476;2023-02-18T10:59:01;16.45;41.29
68867;SHT30;56451;44.804;20.476;2023-02-18T11:01:29;16.53;41.11
68867;SHT30;56451;44.804;20.476;2023-02-18T11:04:17;16.51;41.00
68867;SHT30;56451;44.804;20.476;2023-02-18T11:06:50;16.53;41.02
68867;SHT30;56451;44.804;20.476;2023-02-18T11:09:40;16.58;41.24
68867;SHT30;56451;44.804;20.476;2023-02-18T11:12:18;16.60;41.12
68867;SHT30;56451;44.804;20.476;2023-02-18T11:15:04;16.61;41.14
68867;SHT30;56451;44.804;20.476;2023-02-18T11:17:31;16.58;41.23
68867;SHT30;56451;44.804;20.476;2023-02-18T11:20:00;16.54;41.32
68867;SHT30;56451;44.804;20.476;2023-02-18T11:22:32;16.53;41.64
68867;SHT30;56451;44.804;20.476;2023-02-18T11:25:18;16.57;41.64
68867;SHT30;56451;44.804;20.476;2023-02-18T11:27:47;16.58;41.68
68867;SHT30;56451;44.804;20.476;2023-02-18T11:30:26;16.60;41.63
68867;SHT30;56451;44.804;20.476;2023-02-18T11:35:39;16.60;41.67
68867;SHT30;56451;44.804;20.476;2023-02-18T11:38:20;16.57;41.60
68867;SHT30;56451;44.804;20.476;2023-02-18T11:40:54;16.48;41.81
68867;SHT30;56451;44.804;20.476;2023-02-18T11:43:21;16.50;41.85
68867;SHT30;56451;44.804;20.476;2023-02-18T11:45:47;16.53;41.92
68867;SHT30;56451;44.804;20.476;2023-02-18T11:50:39;16.47;42.19
68867;SHT30;56451;44.804;20.476;2023-02-18T11:55:58;16.48;42.15
68867;SHT30;56451;44.804;20.476;2023-02-18T11:58:26;16.51;42.39
68867;SHT30;56451;44.804;20.476;2023-02-18T12:00:58;16.50;42.36
68867;SHT30;56451;44.804;20.476;2023-02-18T12:03:32;16.51;42.52
68867;SHT30;56451;44.804;20.476;2023-02-18T12:06:10;16.60;42.47
68867;SHT30;56451;44.804;20.476;2023-02-18T12:08:47;16.61;42.59
68867;SHT30;56451;44.804;20.476;2023-02-18T12:11:25;16.61;42.61
68867;SHT30;56451;44.804;20.476;2023-02-18T12:13:55;16.64;42.63
68867;SHT30;56451;44.804;20.476;2023-02-18T12:16:44;16.64;42.55
68867;SHT30;56451;44.804;20.476;2023-02-18T12:32:43;16.76;42.08
68867;SHT30;56451;44.804;20.476;2023-02-18T12:40:43;16.86;42.05
68867;SHT30;56451;44.804;20.476;2023-02-18T12:43:29;16.94;41.77
68867;SHT30;56451;44.804;20.476;2023-02-18T12:57:21;17.16;41.58
68867;SHT30;56451;44.804;20.476;2023-02-18T13:06:02;17.22;41.51
68867;SHT30;56451;44.804;20.476;2023-02-18T13:08:34;17.30;41.98
68867;SHT30;56451;44.804;20.476;2023-02-18T13:14:22;17.37;41.26
68867;SHT30;56451;44.804;20.476;2023-02-18T13:16:54;17.39;41.52
68867;SHT30;56451;44.804;20.476;2023-02-18T13:19:32;17.33;41.42
68867;SHT30;56451;44.804;20.476;2023-02-18T13:22:05;17.32;41.47
68867;SHT30;56451;44.804;20.476;2023-02-18T13:24:35;17.40;41.07
68867;SHT30;56451;44.804;20.476;2023-02-18T13:27:12;17.43;41.05
68867;SHT30;56451;44.804;20.476;2023-02-18T13:32:39;17.50;40.59
68867;SHT30;56451;44.804;20.476;2023-02-18T13:40:27;17.32;41.17
68867;SHT30;56451;44.804;20.476;2023-02-18T13:51:05;17.71;41.04
68867;SHT30;56451;44.804;20.476;2023-02-18T13:53:35;17.80;40.69
68867;SHT30;56451;44.804;20.476;2023-02-18T13:56:18;17.88;40.46
68867;SHT30;56451;44.804;20.476;2023-02-18T13:58:50;17.88;40.11
68867;SHT30;56451;44.804;20.476;2023-02-18T14:04:01;17.77;40.46
68867;SHT30;56451;44.804;20.476;2023-02-18T14:06:31;17.64;40.51
68867;SHT30;56451;44.804;20.476;2023-02-18T14:09:27;17.66;40.40
68867;SHT30;56451;44.804;20.476;2023-02-18T14:11:56;17.66;40.46
68867;SHT30;56451;44.804;20.476;2023-02-18T14:14:39;17.60;40.53
68867;SHT30;56451;44.804;20.476;2023-02-18T14:19:55;17.63;40.68
68867;SHT30;56451;44.804;20.476;2023-02-18T14:25:02;17.71;40.51
68867;SHT30;56451;44.804;20.476;2023-02-18T14:27:28;17.84;40.59
68867;SHT30;56451;44.804;20.476;2023-02-18T14:30:02;17.88;39.96
68867;SHT30;56451;44.804;20.476;2023-02-18T14:32:29;17.92;40.27
68867;SHT30;56451;44.804;20.476;2023-02-18T14:35:06;17.95;39.97
68867;SHT30;56451;44.804;20.476;2023-02-18T14:51:20;18.33;38.86
68867;SHT30;56451;44.804;20.476;2023-02-18T14:53:47;18.32;38.84
68867;SHT30;56451;44.804;20.476;2023-02-18T14:56:15;18.38;38.60
68867;SHT30;56451;44.804;20.476;2023-02-18T14:58:56;18.35;38.54
68867;SHT30;56451;44.804;20.476;2023-02-18T15:01:27;18.36;38.55
68867;SHT30;56451;44.804;20.476;2023-02-18T15:03:55;18.33;38.59
68867;SHT30;56451;44.804;20.476;2023-02-18T15:06:33;18.38;38.34
68867;SHT30;56451;44.804;20.476;2023-02-18T15:09:01;18.33;38.42
68867;SHT30;56451;44.804;20.476;2023-02-18T15:11:39;18.32;38.32
68867;SHT30;56451;44.804;20.476;2023-02-18T15:14:35;18.35;38.26
68867;SHT30;56451;44.804;20.476;2023-02-18T15:17:03;18.35;38.36
68867;SHT30;56451;44.804;20.476;2023-02-18T15:19:37;18.32;38.33
68867;SHT30;56451;44.804;20.476;2023-02-18T15:22:04;18.33;38.29
68867;SHT30;56451;44.804;20.476;2023-02-18T15:24:35;18.32;38.33
68867;SHT30;56451;44.804;20.476;2023-02-18T15:27:10;18.32;38.41
68867;SHT30;56451;44.804;20.476;2023-02-18T15:29:37;18.29;38.49
68867;SHT30;56451;44.804;20.476;2023-02-18T15:32:20;18.28;38.54
68867;SHT30;56451;44.804;20.476;2023-02-18T15:34:55;18.24;38.70
68867;SHT30;56451;44.804;20.476;2023-02-18T15:37:22;18.22;38.79
68867;SHT30;56451;44.804;20.476;2023-02-18T15:39:48;18.21;38.87
68867;SHT30;56451;44.804;20.476;2023-02-18T15:42:30;18.21;38.97
68867;SHT30;56451;44.804;20.476;2023-02-18T15:45:19;18.13;39.23
68867;SHT30;56451;44.804;20.476;2023-02-18T15:47:49;18.08;39.23
68867;SHT30;56451;44.804;20.476;2023-02-18T15:50:25;18.04;39.41
68867;SHT30;56451;44.804;20.476;2023-02-18T15:52:53;18.00;39.45
68867;SHT30;56451;44.804;20.476;2023-02-18T15:55:42;18.00;39.63
68867;SHT30;56451;44.804;20.476;2023-02-18T15:58:16;17.95;39.68
68867;SHT30;56451;44.804;20.476;2023-02-18T16:03:23;17.85;39.89
68867;SHT30;56451;44.804;20.476;2023-02-18T16:05:51;17.81;40.13
68867;SHT30;56451;44.804;20.476;2023-02-18T16:08:31;17.78;40.18
68867;SHT30;56451;44.804;20.476;2023-02-18T16:11:11;17.78;40.32
68867;SHT30;56451;44.804;20.476;2023-02-18T16:13:45;17.70;40.42
68867;SHT30;56451;44.804;20.476;2023-02-18T16:16:38;17.66;40.53
68867;SHT30;56451;44.804;20.476;2023-02-18T16:19:05;17.60;40.65
68867;SHT30;56451;44.804;20.476;2023-02-18T16:21:39;17.59;40.81
68867;SHT30;56451;44.804;20.476;2023-02-18T16:24:25;17.54;40.98
68867;SHT30;56451;44.804;20.476;2023-02-18T16:27:00;17.53;41.06
68867;SHT30;56451;44.804;20.476;2023-02-18T16:29:54;17.47;41.19
68867;SHT30;56451;44.804;20.476;2023-02-18T16:32:23;17.44;41.24
68867;SHT30;56451;44.804;20.476;2023-02-18T16:34:49;17.40;41.49
68867;SHT30;56451;44.804;20.476;2023-02-18T16:37:15;17.37;41.61
68867;SHT30;56451;44.804;20.476;2023-02-18T16:39:59;17.39;41.66
68867;SHT30;56451;44.804;20.476;2023-02-18T16:42:25;17.34;41.70
68867;SHT30;56451;44.804;20.476;2023-02-18T16:44:51;17.34;41.92
68867;SHT30;56451;44.804;20.476;2023-02-18T16:47:18;17.29;42.08
68867;SHT30;56451;44.804;20.476;2023-02-18T16:49:47;17.30;42.14
68867;SHT30;56451;44.804;20.476;2023-02-18T16:52:15;17.24;42.37
68867;SHT30;56451;44.804;20.476;2023-02-18T16:54:42;17.18;42.59
68867;SHT30;56451;44.804;20.476;2023-02-18T16:57:09;17.11;42.74
68867;SHT30;56451;44.804;20.476;2023-02-18T16:59:35;17.09;42.84
68867;SHT30;56451;44.804;20.476;2023-02-18T17:02:02;17.06;42.88
68867;SHT30;56451;44.804;20.476;2023-02-18T17:04:28;17.05;42.91
68867;SHT30;56451;44.804;20.476;2023-02-18T17:06:54;17.01;43.00
68867;SHT30;56451;44.804;20.476;2023-02-18T17:09:23;17.01;43.04
68867;SHT30;56451;44.804;20.476;2023-02-18T17:11:53;16.95;43.09
68867;SHT30;56451;44.804;20.476;2023-02-18T17:14:21;16.92;43.19
68867;SHT30;56451;44.804;20.476;2023-02-18T17:16:48;16.92;43.28
68867;SHT30;56451;44.804;20.476;2023-02-18T17:19:15;16.94;43.37
68867;SHT30;56451;44.804;20.476;2023-02-18T17:21:41;16.94;43.44
68867;SHT30;56451;44.804;20.476;2023-02-18T17:24:16;16.94;43.37
68867;SHT30;56451;44.804;20.476;2023-02-18T17:26:42;16.91;43.47
68867;SHT30;56451;44.804;20.476;2023-02-18T17:29:08;16.91;43.63
68867;SHT30;56451;44.804;20.476;2023-02-18T17:31:40;16.86;43.68
68867;SHT30;56451;44.804;20.476;2023-02-18T17:34:17;16.84;43.80
68867;SHT30;56451;44.804;20.476;2023-02-18T17:36:44;16.79;43.85
68867;SHT30;56451;44.804;20.476;2023-02-18T17:39:14;16.76;43.88
68867;SHT30;56451;44.804;20.476;2023-02-18T17:41:42;16.76;43.87
68867;SHT30;56451;44.804;20.476;2023-02-18T17:44:18;16.75;43.77
68867;SHT30;56451;44.804;20.476;2023-02-18T17:46:44;16.76;43.63
68867;SHT30;56451;44.804;20.476;2023-02-18T17:49:11;16.72;43.71
68867;SHT30;56451;44.804;20.476;2023-02-18T17:51:37;16.68;43.85
68867;SHT30;56451;44.804;20.476;2023-02-18T17:54:16;16.67;43.94
68867;SHT30;56451;44.804;20.476;2023-02-18T17:56:43;16.65;43.96
68867;SHT30;56451;44.804;20.476;2023-02-18T17:59:09;16.61;43.89
68867;SHT30;56451;44.804;20.476;2023-02-18T18:01:35;16.58;43.91
68867;SHT30;56451;44.804;20.476;2023-02-18T18:04:01;16.57;44.00
68867;SHT30;56451;44.804;20.476;2023-02-18T18:06:27;16.55;44.05
68867;SHT30;56451;44.804;20.476;2023-02-18T18:08:53;16.53;43.90
68867;SHT30;56451;44.804;20.476;2023-02-18T18:11:22;16.45;43.93
68867;SHT30;56451;44.804;20.476;2023-02-18T18:13:50;16.41;43.94
68867;SHT30;56451;44.804;20.476;2023-02-18T18:16:18;16.41;43.94
68867;SHT30;56451;44.804;20.476;2023-02-18T18:18:44;16.40;44.07
68867;SHT30;56451;44.804;20.476;2023-02-18T18:23:41;16.31;44.25
68867;SHT30;56451;44.804;20.476;2023-02-18T18:26:07;16.28;44.30
68867;SHT30;56451;44.804;20.476;2023-02-18T18:28:33;16.23;44.39
68867;SHT30;56451;44.804;20.476;2023-02-18T18:30:59;16.23;44.41
68867;SHT30;56451;44.804;20.476;2023-02-18T18:33:28;16.23;44.27
68867;SHT30;56451;44.804;20.476;2023-02-18T18:35:56;16.23;44.26
68867;SHT30;56451;44.804;20.476;2023-02-18T18:38:23;16.16;44.42